sensor_id;sensor_type;location;lat;lon;timestamp;P1;durP1;ratioP1;P2;durP2;ratioP2
12359;SDS011;6244;51.460;7.090;2023-06-22T00:02:25;7.40;;;5.65;;
12359;SDS011;6244;51.460;7.090;2023-06-22T00:07:21;8.30;;;6.35;;
12359;SDS011;6244;51.460;7.090;2023-06-22T00:12:20;8.98;;;6.90;;
12359;SDS011;6244;51.460;7.090;2023-06-22T00:17:16;10.13;;;6.88;;
12359;SDS011;6244;51.460;7.090;2023-06-22T00:22:13;12.68;;;7.20;;
12359;SDS011;6244;51.460;7.090;2023-06-22T00:27:12;9.25;;;7.47;;
12359;SDS011;6244;51.460;7.090;2023-06-22T00:32:10;10.27;;;7.38;;
12359;SDS011;6244;51.460;7.090;2023-06-22T00:37:06;11.00;;;8.00;;
12359;SDS011;6244;51.460;7.090;2023-06-22T00:42:03;9.98;;;8.25;;
12359;SDS011;6244;51.460;7.090;2023-06-22T00:47:00;11.25;;;8.23;;
12359;SDS011;6244;51.460;7.090;2023-06-22T00:51:58;11.43;;;7.60;;
12359;SDS011;6244;51.460;7.090;2023-06-22T00:56:55;11.10;;;7.30;;
12359;SDS011;6244;51.460;7.090;2023-06-22T01:01:52;9.63;;;7.10;;
12359;SDS011;6244;51.460;7.090;2023-06-22T01:06:51;10.50;;;7.07;;
12359;SDS011;6244;51.460;7.090;2023-06-22T01:11:57;10.02;;;6.65;;
12359;SDS011;6244;51.460;7.090;2023-06-22T01:16:57;9.45;;;6.55;;
12359;SDS011;6244;51.460;7.090;2023-06-22T01:21:56;8.82;;;7.00;;
12359;SDS011;6244;51.460;7.090;2023-06-22T01:27:00;9.73;;;7.00;;
12359;SDS011;6244;51.460;7.090;2023-06-22T01:32:07;7.88;;;6.35;;
12359;SDS011;6244;51.460;7.090;2023-06-22T01:37:06;9.00;;;6.18;;
12359;SDS011;6244;51.460;7.090;2023-06-22T01:42:03;9.73;;;6.82;;
12359;SDS011;6244;51.460;7.090;2023-06-22T01:47:01;10.90;;;7.55;;
12359;SDS011;6244;51.460;7.090;2023-06-22T01:51:59;8.88;;;6.30;;
12359;SDS011;6244;51.460;7.090;2023-06-22T01:56:56;11.95;;;6.72;;
12359;SDS011;6244;51.460;7.090;2023-06-22T02:01:54;9.63;;;7.57;;
12359;SDS011;6244;51.460;7.090;2023-06-22T02:06:55;9.65;;;7.55;;
12359;SDS011;6244;51.460;7.090;2023-06-22T02:11:56;11.55;;;7.53;;
12359;SDS011;6244;51.460;7.090;2023-06-22T02:16:53;13.02;;;8.95;;
12359;SDS011;6244;51.460;7.090;2023-06-22T02:21:53;14.98;;;10.30;;
12359;SDS011;6244;51.460;7.090;2023-06-22T02:26:50;13.60;;;10.35;;
12359;SDS011;6244;51.460;7.090;2023-06-22T02:31:48;15.70;;;10.60;;
12359;SDS011;6244;51.460;7.090;2023-06-22T02:36:45;15.77;;;11.07;;
12359;SDS011;6244;51.460;7.090;2023-06-22T02:41:45;13.30;;;9.82;;
12359;SDS011;6244;51.460;7.090;2023-06-22T02:46:42;12.48;;;10.48;;
12359;SDS011;6244;51.460;7.090;2023-06-22T02:51:41;11.82;;;10.07;;
12359;SDS011;6244;51.460;7.090;2023-06-22T02:56:38;15.48;;;11.35;;
12359;SDS011;6244;51.460;7.090;2023-06-22T03:01:35;17.30;;;11.30;;
12359;SDS011;6244;51.460;7.090;2023-06-22T03:06:35;13.80;;;10.63;;
12359;SDS011;6244;51.460;7.090;2023-06-22T03:11:33;15.75;;;10.60;;
12359;SDS011;6244;51.460;7.090;2023-06-22T03:16:30;13.95;;;10.45;;
12359;SDS011;6244;51.460;7.090;2023-06-22T03:21:28;15.32;;;10.82;;
12359;SDS011;6244;51.460;7.090;2023-06-22T03:26:25;13.00;;;10.80;;
12359;SDS011;6244;51.460;7.090;2023-06-22T03:31:23;14.77;;;10.13;;
12359;SDS011;6244;51.460;7.090;2023-06-22T03:36:20;14.13;;;11.40;;
12359;SDS011;6244;51.460;7.090;2023-06-22T03:41:17;14.63;;;11.48;;
12359;SDS011;6244;51.460;7.090;2023-06-22T03:46:14;13.93;;;10.93;;
12359;SDS011;6244;51.460;7.090;2023-06-22T03:51:11;13.82;;;11.02;;
12359;SDS011;6244;51.460;7.090;2023-06-22T03:56:08;14.27;;;12.30;;
12359;SDS011;6244;51.460;7.090;2023-06-22T04:01:04;16.10;;;11.10;;
12359;SDS011;6244;51.460;7.090;2023-06-22T04:06:01;15.50;;;12.13;;
12359;SDS011;6244;51.460;7.090;2023-06-22T04:10:59;16.23;;;12.25;;
12359;SDS011;6244;51.460;7.090;2023-06-22T04:15:56;15.80;;;12.80;;
12359;SDS011;6244;51.460;7.090;2023-06-22T04:20:53;17.30;;;12.88;;
12359;SDS011;6244;51.460;7.090;2023-06-22T04:25:49;18.17;;;13.20;;
12359;SDS011;6244;51.460;7.090;2023-06-22T04:30:48;18.33;;;12.82;;
12359;SDS011;6244;51.460;7.090;2023-06-22T04:35:46;15.40;;;12.38;;
12359;SDS011;6244;51.460;7.090;2023-06-22T04:40:42;16.83;;;13.15;;
12359;SDS011;6244;51.460;7.090;2023-06-22T04:45:39;16.63;;;12.77;;
12359;SDS011;6244;51.460;7.090;2023-06-22T04:50:37;18.10;;;13.73;;
12359;SDS011;6244;51.460;7.090;2023-06-22T04:55:34;17.23;;;13.77;;
12359;SDS011;6244;51.460;7.090;2023-06-22T05:00:33;18.30;;;13.68;;
12359;SDS011;6244;51.460;7.090;2023-06-22T05:05:31;15.05;;;12.98;;
12359;SDS011;6244;51.460;7.090;2023-06-22T05:10:29;17.45;;;14.48;;
12359;SDS011;6244;51.460;7.090;2023-06-22T05:15:25;15.23;;;12.13;;
12359;SDS011;6244;51.460;7.090;2023-06-22T05:20:25;16.75;;;13.43;;
12359;SDS011;6244;51.460;7.090;2023-06-22T05:25:22;17.55;;;13.63;;
12359;SDS011;6244;51.460;7.090;2023-06-22T05:30:20;18.42;;;14.45;;
12359;SDS011;6244;51.460;7.090;2023-06-22T05:35:16;17.83;;;13.90;;
12359;SDS011;6244;51.460;7.090;2023-06-22T05:40:13;17.13;;;13.43;;
12359;SDS011;6244;51.460;7.090;2023-06-22T05:45:09;16.95;;;13.20;;
12359;SDS011;6244;51.460;7.090;2023-06-22T05:50:08;15.98;;;12.65;;
12359;SDS011;6244;51.460;7.090;2023-06-22T05:55:05;19.48;;;13.57;;
12359;SDS011;6244;51.460;7.090;2023-06-22T06:00:02;16.48;;;13.35;;
12359;SDS011;6244;51.460;7.090;2023-06-22T06:05:02;17.05;;;13.55;;
12359;SDS011;6244;51.460;7.090;2023-06-22T06:09:59;17.67;;;11.68;;
12359;SDS011;6244;51.460;7.090;2023-06-22T06:14:56;20.15;;;13.00;;
12359;SDS011;6244;51.460;7.090;2023-06-22T06:19:52;14.02;;;11.75;;
12359;SDS011;6244;51.460;7.090;2023-06-22T06:24:49;16.70;;;13.15;;
12359;SDS011;6244;51.460;7.090;2023-06-22T06:29:48;17.10;;;13.18;;
12359;SDS011;6244;51.460;7.090;2023-06-22T06:34:44;18.13;;;14.23;;
12359;SDS011;6244;51.460;7.090;2023-06-22T06:39:41;18.23;;;12.77;;
12359;SDS011;6244;51.460;7.090;2023-06-22T06:44:37;20.33;;;13.98;;
12359;SDS011;6244;51.460;7.090;2023-06-22T06:49:35;23.65;;;14.25;;
12359;SDS011;6244;51.460;7.090;2023-06-22T06:54:32;18.02;;;14.00;;
12359;SDS011;6244;51.460;7.090;2023-06-22T06:59:28;19.23;;;13.98;;
12359;SDS011;6244;51.460;7.090;2023-06-22T07:04:25;17.83;;;13.73;;
12359;SDS011;6244;51.460;7.090;2023-06-22T07:09:23;19.83;;;14.20;;
12359;SDS011;6244;51.460;7.090;2023-06-22T07:14:19;19.67;;;12.85;;
12359;SDS011;6244;51.460;7.090;2023-06-22T07:19:16;19.45;;;12.50;;
12359;SDS011;6244;51.460;7.090;2023-06-22T07:24:20;20.42;;;14.40;;
12359;SDS011;6244;51.460;7.090;2023-06-22T07:29:18;20.25;;;14.25;;
12359;SDS011;6244;51.460;7.090;2023-06-22T07:34:15;19.02;;;13.43;;
12359;SDS011;6244;51.460;7.090;2023-06-22T07:39:11;17.40;;;13.45;;
12359;SDS011;6244;51.460;7.090;2023-06-22T07:44:08;23.55;;;14.75;;
12359;SDS011;6244;51.460;7.090;2023-06-22T07:49:06;18.73;;;15.07;;
12359;SDS011;6244;51.460;7.090;2023-06-22T07:54:03;20.65;;;15.55;;
12359;SDS011;6244;51.460;7.090;2023-06-22T07:59:00;24.77;;;15.35;;
12359;SDS011;6244;51.460;7.090;2023-06-22T08:03:58;23.58;;;16.92;;
12359;SDS011;6244;51.460;7.090;2023-06-22T08:08:56;20.60;;;17.23;;
12359;SDS011;6244;51.460;7.090;2023-06-22T08:13:54;22.27;;;16.67;;
12359;SDS011;6244;51.460;7.090;2023-06-22T08:18:53;22.58;;;17.17;;
12359;SDS011;6244;51.460;7.090;2023-06-22T08:23:49;21.83;;;16.35;;
12359;SDS011;6244;51.460;7.090;2023-06-22T08:28:57;25.20;;;16.60;;
12359;SDS011;6244;51.460;7.090;2023-06-22T08:33:54;19.85;;;16.20;;
12359;SDS011;6244;51.460;7.090;2023-06-22T08:38:50;20.13;;;13.95;;
12359;SDS011;6244;51.460;7.090;2023-06-22T08:43:49;20.35;;;16.27;;
12359;SDS011;6244;51.460;7.090;2023-06-22T08:48:46;19.88;;;14.90;;
12359;SDS011;6244;51.460;7.090;2023-06-22T08:53:43;19.83;;;16.02;;
12359;SDS011;6244;51.460;7.090;2023-06-22T08:58:40;17.02;;;13.82;;
12359;SDS011;6244;51.460;7.090;2023-06-22T09:03:38;18.00;;;14.90;;
12359;SDS011;6244;51.460;7.090;2023-06-22T09:08:34;18.77;;;14.98;;
12359;SDS011;6244;51.460;7.090;2023-06-22T09:13:32;17.73;;;14.32;;
12359;SDS011;6244;51.460;7.090;2023-06-22T09:18:29;16.85;;;13.80;;
12359;SDS011;6244;51.460;7.090;2023-06-22T09:23:33;18.90;;;14.98;;
12359;SDS011;6244;51.460;7.090;2023-06-22T09:28:31;19.23;;;13.70;;
12359;SDS011;6244;51.460;7.090;2023-06-22T09:33:28;18.80;;;13.88;;
12359;SDS011;6244;51.460;7.090;2023-06-22T09:38:24;17.73;;;13.45;;
12359;SDS011;6244;51.460;7.090;2023-06-22T09:43:22;16.73;;;12.73;;
12359;SDS011;6244;51.460;7.090;2023-06-22T09:48:19;17.27;;;12.82;;
12359;SDS011;6244;51.460;7.090;2023-06-22T09:53:16;16.02;;;13.00;;
12359;SDS011;6244;51.460;7.090;2023-06-22T09:58:12;17.17;;;13.95;;
12359;SDS011;6244;51.460;7.090;2023-06-22T10:03:11;16.00;;;13.50;;
12359;SDS011;6244;51.460;7.090;2023-06-22T10:08:08;18.70;;;13.23;;
12359;SDS011;6244;51.460;7.090;2023-06-22T10:13:09;17.63;;;13.63;;
12359;SDS011;6244;51.460;7.090;2023-06-22T10:18:15;17.33;;;13.48;;
12359;SDS011;6244;51.460;7.090;2023-06-22T10:23:26;17.77;;;14.00;;
12359;SDS011;6244;51.460;7.090;2023-06-22T10:28:24;14.82;;;12.38;;
12359;SDS011;6244;51.460;7.090;2023-06-22T10:33:23;16.48;;;13.40;;
12359;SDS011;6244;51.460;7.090;2023-06-22T10:38:20;17.38;;;13.18;;
12359;SDS011;6244;51.460;7.090;2023-06-22T10:43:18;20.40;;;13.85;;
12359;SDS011;6244;51.460;7.090;2023-06-22T10:48:18;17.00;;;12.40;;
12359;SDS011;6244;51.460;7.090;2023-06-22T10:53:20;14.07;;;11.70;;
12359;SDS011;6244;51.460;7.090;2023-06-22T10:58:19;14.40;;;11.75;;
12359;SDS011;6244;51.460;7.090;2023-06-22T11:03:20;15.80;;;12.90;;
12359;SDS011;6244;51.460;7.090;2023-06-22T11:08:20;17.63;;;13.13;;
12359;SDS011;6244;51.460;7.090;2023-06-22T11:13:17;17.17;;;13.02;;
12359;SDS011;6244;51.460;7.090;2023-06-22T11:18:15;19.00;;;13.57;;
12359;SDS011;6244;51.460;7.090;2023-06-22T11:23:12;17.73;;;13.50;;
12359;SDS011;6244;51.460;7.090;2023-06-22T11:28:10;17.98;;;13.93;;
12359;SDS011;6244;51.460;7.090;2023-06-22T11:33:07;21.40;;;15.68;;
12359;SDS011;6244;51.460;7.090;2023-06-22T11:38:04;22.33;;;17.45;;
12359;SDS011;6244;51.460;7.090;2023-06-22T11:43:00;24.63;;;19.00;;
12359;SDS011;6244;51.460;7.090;2023-06-22T11:47:59;32.15;;;21.38;;
12359;SDS011;6244;51.460;7.090;2023-06-22T11:52:55;32.88;;;22.33;;
12359;SDS011;6244;51.460;7.090;2023-06-22T11:57:53;32.63;;;23.08;;
12359;SDS011;6244;51.460;7.090;2023-06-22T12:02:51;30.77;;;23.42;;
12359;SDS011;6244;51.460;7.090;2023-06-22T12:07:49;32.17;;;23.50;;
12359;SDS011;6244;51.460;7.090;2023-06-22T12:12:46;33.00;;;23.63;;
12359;SDS011;6244;51.460;7.090;2023-06-22T12:17:43;27.65;;;21.42;;
12359;SDS011;6244;51.460;7.090;2023-06-22T12:22:40;36.00;;;24.20;;
12359;SDS011;6244;51.460;7.090;2023-06-22T12:27:38;33.78;;;24.38;;
12359;SDS011;6244;51.460;7.090;2023-06-22T12:32:35;30.48;;;23.45;;
12359;SDS011;6244;51.460;7.090;2023-06-22T12:37:31;34.92;;;25.63;;
12359;SDS011;6244;51.460;7.090;2023-06-22T12:42:28;35.22;;;26.60;;
12359;SDS011;6244;51.460;7.090;2023-06-22T12:47:26;30.65;;;23.83;;
12359;SDS011;6244;51.460;7.090;2023-06-22T12:52:23;30.33;;;24.60;;
12359;SDS011;6244;51.460;7.090;2023-06-22T12:57:19;38.17;;;26.02;;
12359;SDS011;6244;51.460;7.090;2023-06-22T13:02:16;35.47;;;27.00;;
12359;SDS011;6244;51.460;7.090;2023-06-22T13:07:14;35.67;;;26.83;;
12359;SDS011;6244;51.460;7.090;2023-06-22T13:12:11;36.55;;;27.52;;
12359;SDS011;6244;51.460;7.090;2023-06-22T13:17:07;30.08;;;24.10;;
12359;SDS011;6244;51.460;7.090;2023-06-22T13:22:09;31.38;;;23.90;;
12359;SDS011;6244;51.460;7.090;2023-06-22T13:27:26;29.40;;;23.10;;
12359;SDS011;6244;51.460;7.090;2023-06-22T13:32:23;26.10;;;20.60;;
12359;SDS011;6244;51.460;7.090;2023-06-22T13:37:20;25.05;;;20.38;;
12359;SDS011;6244;51.460;7.090;2023-06-22T13:42:18;30.08;;;19.80;;
12359;SDS011;6244;51.460;7.090;2023-06-22T13:47:15;25.25;;;19.50;;
12359;SDS011;6244;51.460;7.090;2023-06-22T13:52:16;23.08;;;18.33;;
12359;SDS011;6244;51.460;7.090;2023-06-22T13:57:12;20.42;;;15.35;;
12359;SDS011;6244;51.460;7.090;2023-06-22T14:02:12;19.50;;;15.05;;
12359;SDS011;6244;51.460;7.090;2023-06-22T14:07:09;17.73;;;14.25;;
12359;SDS011;6244;51.460;7.090;2023-06-22T14:12:06;18.23;;;14.65;;
12359;SDS011;6244;51.460;7.090;2023-06-22T14:17:03;18.25;;;14.07;;
12359;SDS011;6244;51.460;7.090;2023-06-22T14:22:01;17.08;;;12.93;;
12359;SDS011;6244;51.460;7.090;2023-06-22T14:26:58;16.88;;;13.30;;
12359;SDS011;6244;51.460;7.090;2023-06-22T14:31:57;17.73;;;12.23;;
12359;SDS011;6244;51.460;7.090;2023-06-22T14:36:55;18.23;;;12.65;;
12359;SDS011;6244;51.460;7.090;2023-06-22T14:41:55;16.92;;;13.00;;
12359;SDS011;6244;51.460;7.090;2023-06-22T14:46:52;15.98;;;13.00;;
12359;SDS011;6244;51.460;7.090;2023-06-22T14:51:49;18.30;;;12.82;;
12359;SDS011;6244;51.460;7.090;2023-06-22T14:56:45;16.58;;;13.15;;
12359;SDS011;6244;51.460;7.090;2023-06-22T15:01:45;26.23;;;16.38;;
12359;SDS011;6244;51.460;7.090;2023-06-22T15:06:41;23.10;;;16.38;;
12359;SDS011;6244;51.460;7.090;2023-06-22T15:11:39;20.55;;;15.85;;
12359;SDS011;6244;51.460;7.090;2023-06-22T15:16:36;21.77;;;16.55;;
12359;SDS011;6244;51.460;7.090;2023-06-22T15:21:34;19.33;;;15.32;;
12359;SDS011;6244;51.460;7.090;2023-06-22T15:26:34;23.20;;;17.30;;
12359;SDS011;6244;51.460;7.090;2023-06-22T15:31:34;23.02;;;17.67;;
12359;SDS011;6244;51.460;7.090;2023-06-22T15:36:31;20.58;;;16.25;;
12359;SDS011;6244;51.460;7.090;2023-06-22T15:41:32;21.23;;;16.42;;
12359;SDS011;6244;51.460;7.090;2023-06-22T15:46:29;21.48;;;17.08;;
12359;SDS011;6244;51.460;7.090;2023-06-22T15:51:26;23.15;;;16.98;;
12359;SDS011;6244;51.460;7.090;2023-06-22T15:56:25;31.05;;;18.13;;
12359;SDS011;6244;51.460;7.090;2023-06-22T16:01:26;25.67;;;17.08;;
12359;SDS011;6244;51.460;7.090;2023-06-22T16:06:26;22.05;;;16.13;;
12359;SDS011;6244;51.460;7.090;2023-06-22T16:11:23;24.55;;;16.55;;
12359;SDS011;6244;51.460;7.090;2023-06-22T16:16:20;26.92;;;18.50;;
12359;SDS011;6244;51.460;7.090;2023-06-22T16:21:20;22.85;;;18.13;;
12359;SDS011;6244;51.460;7.090;2023-06-22T16:26:17;21.60;;;16.83;;
12359;SDS011;6244;51.460;7.090;2023-06-22T16:31:14;24.38;;;16.73;;
12359;SDS011;6244;51.460;7.090;2023-06-22T16:36:11;23.50;;;16.05;;
12359;SDS011;6244;51.460;7.090;2023-06-22T16:41:10;21.00;;;15.80;;
12359;SDS011;6244;51.460;7.090;2023-06-22T16:46:06;19.10;;;14.55;;
12359;SDS011;6244;51.460;7.090;2023-06-22T16:51:03;21.08;;;15.13;;
12359;SDS011;6244;51.460;7.090;2023-06-22T16:56:01;23.15;;;14.85;;
12359;SDS011;6244;51.460;7.090;2023-06-22T17:00:59;18.17;;;14.23;;
12359;SDS011;6244;51.460;7.090;2023-06-22T17:06:03;20.95;;;14.52;;
12359;SDS011;6244;51.460;7.090;2023-06-22T17:11:01;18.98;;;14.65;;
12359;SDS011;6244;51.460;7.090;2023-06-22T17:15:58;20.00;;;14.00;;
12359;SDS011;6244;51.460;7.090;2023-06-22T17:20:57;20.77;;;14.98;;
12359;SDS011;6244;51.460;7.090;2023-06-22T17:25:54;15.90;;;13.15;;
12359;SDS011;6244;51.460;7.090;2023-06-22T17:36:11;20.92;;;14.82;;
12359;SDS011;6244;51.460;7.090;2023-06-22T17:41:09;19.63;;;14.80;;
12359;SDS011;6244;51.460;7.090;2023-06-22T17:46:06;21.73;;;14.23;;
12359;SDS011;6244;51.460;7.090;2023-06-22T17:51:04;19.10;;;13.75;;
12359;SDS011;6244;51.460;7.090;2023-06-22T17:56:01;18.63;;;13.43;;
12359;SDS011;6244;51.460;7.090;2023-06-22T18:00:58;19.58;;;14.32;;
12359;SDS011;6244;51.460;7.090;2023-06-22T18:05:54;18.88;;;13.57;;
12359;SDS011;6244;51.460;7.090;2023-06-22T18:10:52;21.13;;;15.32;;
12359;SDS011;6244;51.460;7.090;2023-06-22T18:15:52;21.80;;;15.23;;
12359;SDS011;6244;51.460;7.090;2023-06-22T18:20:49;21.10;;;15.80;;
12359;SDS011;6244;51.460;7.090;2023-06-22T18:25:47;25.38;;;16.55;;
12359;SDS011;6244;51.460;7.090;2023-06-22T18:30:49;23.67;;;18.13;;
12359;SDS011;6244;51.460;7.090;2023-06-22T18:35:49;26.58;;;19.17;;
12359;SDS011;6244;51.460;7.090;2023-06-22T18:40:48;31.15;;;20.83;;
12359;SDS011;6244;51.460;7.090;2023-06-22T18:45:46;25.05;;;19.67;;
12359;SDS011;6244;51.460;7.090;2023-06-22T18:50:44;23.75;;;18.00;;
12359;SDS011;6244;51.460;7.090;2023-06-22T18:55:43;22.05;;;16.48;;
12359;SDS011;6244;51.460;7.090;2023-06-22T19:00:40;19.73;;;14.45;;
12359;SDS011;6244;51.460;7.090;2023-06-22T19:05:37;16.10;;;13.10;;
12359;SDS011;6244;51.460;7.090;2023-06-22T19:10:39;18.60;;;14.48;;
12359;SDS011;6244;51.460;7.090;2023-06-22T19:15:38;22.70;;;17.02;;
12359;SDS011;6244;51.460;7.090;2023-06-22T19:20:35;24.10;;;18.10;;
12359;SDS011;6244;51.460;7.090;2023-06-22T19:25:36;25.65;;;18.92;;
12359;SDS011;6244;51.460;7.090;2023-06-22T19:30:36;22.85;;;17.27;;
12359;SDS011;6244;51.460;7.090;2023-06-22T19:35:39;23.85;;;17.70;;
12359;SDS011;6244;51.460;7.090;2023-06-22T19:40:40;24.83;;;18.60;;
12359;SDS011;6244;51.460;7.090;2023-06-22T19:45:49;30.10;;;20.42;;
12359;SDS011;6244;51.460;7.090;2023-06-22T19:50:49;36.83;;;23.50;;
12359;SDS011;6244;51.460;7.090;2023-06-22T19:55:46;29.92;;;22.58;;
12359;SDS011;6244;51.460;7.090;2023-06-22T20:00:44;26.23;;;19.52;;
12359;SDS011;6244;51.460;7.090;2023-06-22T20:05:49;11.25;;;9.05;;
12359;SDS011;6244;51.460;7.090;2023-06-22T20:10:45;5.97;;;4.57;;
12359;SDS011;6244;51.460;7.090;2023-06-22T20:15:42;9.23;;;5.78;;
12359;SDS011;6244;51.460;7.090;2023-06-22T20:20:41;7.28;;;6.00;;
12359;SDS011;6244;51.460;7.090;2023-06-22T20:25:41;8.82;;;7.88;;
12359;SDS011;6244;51.460;7.090;2023-06-22T20:30:41;9.88;;;8.63;;
12359;SDS011;6244;51.460;7.090;2023-06-22T20:35:55;11.02;;;7.93;;
12359;SDS011;6244;51.460;7.090;2023-06-22T20:40:53;10.05;;;6.95;;
12359;SDS011;6244;51.460;7.090;2023-06-22T20:45:51;8.18;;;6.60;;
12359;SDS011;6244;51.460;7.090;2023-06-22T20:50:49;9.43;;;6.88;;
12359;SDS011;6244;51.460;7.090;2023-06-22T20:55:45;9.10;;;6.13;;
12359;SDS011;6244;51.460;7.090;2023-06-22T21:00:43;8.52;;;5.38;;
12359;SDS011;6244;51.460;7.090;2023-06-22T21:05:40;6.88;;;4.97;;
12359;SDS011;6244;51.460;7.090;2023-06-22T21:10:37;8.27;;;6.03;;
12359;SDS011;6244;51.460;7.090;2023-06-22T21:15:34;9.30;;;5.97;;
12359;SDS011;6244;51.460;7.090;2023-06-22T21:20:34;9.10;;;5.78;;
12359;SDS011;6244;51.460;7.090;2023-06-22T21:25:31;9.93;;;6.13;;
12359;SDS011;6244;51.460;7.090;2023-06-22T21:30:28;9.02;;;6.93;;
12359;SDS011;6244;51.460;7.090;2023-06-22T21:35:25;8.82;;;6.50;;
12359;SDS011;6244;51.460;7.090;2023-06-22T21:40:23;8.70;;;6.57;;
12359;SDS011;6244;51.460;7.090;2023-06-22T21:45:19;9.73;;;7.43;;
12359;SDS011;6244;51.460;7.090;2023-06-22T21:50:16;10.85;;;7.78;;
12359;SDS011;6244;51.460;7.090;2023-06-22T21:55:12;9.10;;;6.45;;
12359;SDS011;6244;51.460;7.090;2023-06-22T22:00:11;8.63;;;6.90;;
12359;SDS011;6244;51.460;7.090;2023-06-22T22:05:08;8.40;;;6.65;;
12359;SDS011;6244;51.460;7.090;2023-06-22T22:10:05;9.55;;;7.07;;
12359;SDS011;6244;51.460;7.090;2023-06-22T22:15:03;9.38;;;7.47;;
12359;SDS011;6244;51.460;7.090;2023-06-22T22:20:03;10.95;;;8.07;;
12359;SDS011;6244;51.460;7.090;2023-06-22T22:25:00;9.02;;;7.53;;
12359;SDS011;6244;51.460;7.090;2023-06-22T22:29:57;9.63;;;7.78;;
12359;SDS011;6244;51.460;7.090;2023-06-22T22:34:53;10.18;;;7.60;;
12359;SDS011;6244;51.460;7.090;2023-06-22T22:39:51;9.82;;;7.45;;
12359;SDS011;6244;51.460;7.090;2023-06-22T22:44:48;10.75;;;7.50;;
12359;SDS011;6244;51.460;7.090;2023-06-22T22:49:44;9.60;;;7.47;;
12359;SDS011;6244;51.460;7.090;2023-06-22T22:54:41;10.60;;;7.97;;
12359;SDS011;6244;51.460;7.090;2023-06-22T22:59:39;11.18;;;8.60;;
12359;SDS011;6244;51.460;7.090;2023-06-22T23:04:37;13.15;;;9.23;;
12359;SDS011;6244;51.460;7.090;2023-06-22T23:09:35;11.85;;;9.27;;
12359;SDS011;6244;51.460;7.090;2023-06-22T23:14:31;12.40;;;10.23;;
12359;SDS011;6244;51.460;7.090;2023-06-22T23:19:29;13.57;;;10.23;;
12359;SDS011;6244;51.460;7.090;2023-06-22T23:24:28;11.93;;;9.80;;
12359;SDS011;6244;51.460;7.090;2023-06-22T23:29:25;12.60;;;9.73;;
12359;SDS011;6244;51.460;7.090;2023-06-22T23:34:21;12.25;;;9.20;;
12359;SDS011;6244;51.460;7.090;2023-06-22T23:39:19;14.57;;;9.65;;
12359;SDS011;6244;51.460;7.090;2023-06-22T23:44:16;13.27;;;9.88;;
12359;SDS011;6244;51.460;7.090;2023-06-22T23:49:12;12.23;;;9.90;;
12359;SDS011;6244;51.460;7.090;2023-06-22T23:54:09;11.65;;;9.65;;
12359;SDS011;6244;51.460;7.090;2023-06-22T23:59:07;12.55;;;10.48;;
